sensor_id;sensor_type;location;lat;lon;timestamp;P1;P2;P0
29460;PMS7003;16428;47.836;35.106;2023-04-15T00:01:38;10.00;10.00;7.00
29460;PMS7003;16428;47.836;35.106;2023-04-15T00:04:05;12.00;9.00;7.00
29460;PMS7003;16428;47.836;35.106;2023-04-15T00:06:35;9.00;7.00;5.25
29460;PMS7003;16428;47.836;35.106;2023-04-15T00:09:03;6.25;6.00;4.75
29460;PMS7003;16428;47.836;35.106;2023-04-15T00:11:31;5.25;4.50;3.50
29460;PMS7003;16428;47.836;35.106;2023-04-15T00:14:01;6.00;6.00;4.75
29460;PMS7003;16428;47.836;35.106;2023-04-15T00:16:29;8.25;7.00;6.00
29460;PMS7003;16428;47.836;35.106;2023-04-15T00:18:56;6.75;6.00;4.75
29460;PMS7003;16428;47.836;35.106;2023-04-15T00:21:25;5.50;5.50;4.50
29460;PMS7003;16428;47.836;35.106;2023-04-15T00:23:53;7.75;7.00;6.00
29460;PMS7003;16428;47.836;35.106;2023-04-15T00:26:21;6.50;6.00;5.00
29460;PMS7003;16428;47.836;35.106;2023-04-15T00:28:52;6.00;5.50;5.00
29460;PMS7003;16428;47.836;35.106;2023-04-15T00:31:20;5.50;3.75;3.00
29460;PMS7003;16428;47.836;35.106;2023-04-15T00:33:47;8.00;6.50;6.00
29460;PMS7003;16428;47.836;35.106;2023-04-15T00:36:15;4.75;4.75;4.00
29460;PMS7003;16428;47.836;35.106;2023-04-15T00:38:44;6.75;6.75;6.25
29460;PMS7003;16428;47.836;35.106;2023-04-15T00:41:11;7.00;6.25;5.00
29460;PMS7003;16428;47.836;35.106;2023-04-15T00:43:41;12.50;10.00;7.50
29460;PMS7003;16428;47.836;35.106;2023-04-15T00:46:09;10.75;10.75;7.00
29460;PMS7003;16428;47.836;35.106;2023-04-15T00:48:41;8.75;8.75;7.00
29460;PMS7003;16428;47.836;35.106;2023-04-15T00:51:10;13.25;11.75;8.25
29460;PMS7003;16428;47.836;35.106;2023-04-15T00:53:37;7.25;6.25;4.25
29460;PMS7003;16428;47.836;35.106;2023-04-15T00:56:06;11.75;10.75;9.00
29460;PMS7003;16428;47.836;35.106;2023-04-15T00:58:35;14.25;12.25;9.50
29460;PMS7003;16428;47.836;35.106;2023-04-15T01:01:03;11.25;8.50;6.75
29460;PMS7003;16428;47.836;35.106;2023-04-15T01:03:32;11.75;9.00;8.50
29460;PMS7003;16428;47.836;35.106;2023-04-15T01:06:01;10.50;6.25;6.00
29460;PMS7003;16428;47.836;35.106;2023-04-15T01:08:30;10.75;9.75;8.50
29460;PMS7003;16428;47.836;35.106;2023-04-15T01:10:58;9.50;9.50;7.75
29460;PMS7003;16428;47.836;35.106;2023-04-15T01:13:30;9.50;9.50;8.00
29460;PMS7003;16428;47.836;35.106;2023-04-15T01:16:00;11.25;9.75;7.00
29460;PMS7003;16428;47.836;35.106;2023-04-15T01:18:29;9.25;6.25;5.00
29460;PMS7003;16428;47.836;35.106;2023-04-15T01:20:58;10.00;9.25;5.50
29460;PMS7003;16428;47.836;35.106;2023-04-15T01:23:28;9.75;9.25;7.50
29460;PMS7003;16428;47.836;35.106;2023-04-15T01:25:59;11.00;8.25;7.00
29460;PMS7003;16428;47.836;35.106;2023-04-15T01:28:30;10.00;10.00;7.50
29460;PMS7003;16428;47.836;35.106;2023-04-15T01:31:05;11.50;9.50;5.00
29460;PMS7003;16428;47.836;35.106;2023-04-15T01:33:34;9.00;7.50;6.00
29460;PMS7003;16428;47.836;35.106;2023-04-15T01:36:03;7.25;7.25;5.00
29460;PMS7003;16428;47.836;35.106;2023-04-15T01:38:32;7.25;7.25;6.00
29460;PMS7003;16428;47.836;35.106;2023-04-15T01:41:01;7.00;6.25;4.75
29460;PMS7003;16428;47.836;35.106;2023-04-15T01:43:30;7.75;7.75;5.25
29460;PMS7003;16428;47.836;35.106;2023-04-15T01:45:58;6.75;6.75;5.00
29460;PMS7003;16428;47.836;35.106;2023-04-15T01:48:26;4.75;4.75;3.00
29460;PMS7003;16428;47.836;35.106;2023-04-15T01:50:54;8.25;8.25;6.00
29460;PMS7003;16428;47.836;35.106;2023-04-15T01:53:25;7.00;5.75;5.00
29460;PMS7003;16428;47.836;35.106;2023-04-15T01:55:52;5.00;5.00;5.00
29460;PMS7003;16428;47.836;35.106;2023-04-15T01:58:20;4.75;4.75;4.00
29460;PMS7003;16428;47.836;35.106;2023-04-15T02:00:48;11.50;9.75;8.00
29460;PMS7003;16428;47.836;35.106;2023-04-15T02:03:16;11.25;8.00;6.00
29460;PMS7003;16428;47.836;35.106;2023-04-15T02:05:44;14.00;9.75;8.50
29460;PMS7003;16428;47.836;35.106;2023-04-15T02:08:11;5.50;5.50;4.75
29460;PMS7003;16428;47.836;35.106;2023-04-15T02:10:41;10.00;6.00;5.25
29460;PMS7003;16428;47.836;35.106;2023-04-15T02:13:08;7.00;7.00;5.75
29460;PMS7003;16428;47.836;35.106;2023-04-15T02:15:36;8.50;8.50;7.00
29460;PMS7003;16428;47.836;35.106;2023-04-15T02:18:09;6.75;5.00;4.00
29460;PMS7003;16428;47.836;35.106;2023-04-15T02:20:38;6.00;6.00;5.00
29460;PMS7003;16428;47.836;35.106;2023-04-15T02:23:06;11.25;9.00;7.00
29460;PMS7003;16428;47.836;35.106;2023-04-15T02:25:35;9.00;9.00;6.25
29460;PMS7003;16428;47.836;35.106;2023-04-15T02:28:04;9.75;6.50;6.50
29460;PMS7003;16428;47.836;35.106;2023-04-15T02:30:32;8.75;8.75;6.75
29460;PMS7003;16428;47.836;35.106;2023-04-15T02:33:01;4.75;2.25;1.25
29460;PMS7003;16428;47.836;35.106;2023-04-15T02:35:32;4.75;4.50;3.25
29460;PMS7003;16428;47.836;35.106;2023-04-15T02:38:00;8.25;6.75;5.75
29460;PMS7003;16428;47.836;35.106;2023-04-15T02:40:29;8.50;8.50;6.50
29460;PMS7003;16428;47.836;35.106;2023-04-15T02:42:59;6.50;6.50;5.75
29460;PMS7003;16428;47.836;35.106;2023-04-15T02:45:27;6.00;5.75;5.00
29460;PMS7003;16428;47.836;35.106;2023-04-15T02:47:54;9.50;8.00;6.00
29460;PMS7003;16428;47.836;35.106;2023-04-15T02:50:22;5.75;5.75;5.50
29460;PMS7003;16428;47.836;35.106;2023-04-15T02:52:51;9.25;5.25;5.00
29460;PMS7003;16428;47.836;35.106;2023-04-15T02:55:20;8.50;6.50;5.00
29460;PMS7003;16428;47.836;35.106;2023-04-15T02:57:49;8.75;8.75;5.75
29460;PMS7003;16428;47.836;35.106;2023-04-15T03:00:16;7.00;7.00;5.50
29460;PMS7003;16428;47.836;35.106;2023-04-15T03:02:45;2.00;2.00;2.00
29460;PMS7003;16428;47.836;35.106;2023-04-15T03:05:13;2.75;2.75;2.00
29460;PMS7003;16428;47.836;35.106;2023-04-15T03:07:41;5.00;5.00;4.25
29460;PMS7003;16428;47.836;35.106;2023-04-15T03:10:09;6.50;5.50;5.25
29460;PMS7003;16428;47.836;35.106;2023-04-15T03:12:37;9.25;6.00;4.75
29460;PMS7003;16428;47.836;35.106;2023-04-15T03:15:07;6.75;6.75;6.00
29460;PMS7003;16428;47.836;35.106;2023-04-15T03:17:35;7.75;7.75;6.75
29460;PMS7003;16428;47.836;35.106;2023-04-15T03:20:03;8.00;5.75;4.75
29460;PMS7003;16428;47.836;35.106;2023-04-15T03:22:37;5.25;5.25;4.00
29460;PMS7003;16428;47.836;35.106;2023-04-15T03:25:05;8.25;5.00;4.50
29460;PMS7003;16428;47.836;35.106;2023-04-15T03:27:33;6.00;4.00;3.00
29460;PMS7003;16428;47.836;35.106;2023-04-15T03:30:06;3.50;2.00;1.50
29460;PMS7003;16428;47.836;35.106;2023-04-15T03:32:35;2.50;2.50;2.00
29460;PMS7003;16428;47.836;35.106;2023-04-15T03:35:03;5.00;3.00;2.75
29460;PMS7003;16428;47.836;35.106;2023-04-15T03:37:34;3.00;3.00;3.00
29460;PMS7003;16428;47.836;35.106;2023-04-15T03:40:02;3.00;3.00;2.25
29460;PMS7003;16428;47.836;35.106;2023-04-15T03:42:30;2.00;2.00;1.25
29460;PMS7003;16428;47.836;35.106;2023-04-15T03:44:58;3.00;3.00;2.00
29460;PMS7003;16428;47.836;35.106;2023-04-15T03:47:26;3.00;3.00;2.75
29460;PMS7003;16428;47.836;35.106;2023-04-15T03:49:53;2.00;2.00;2.00
29460;PMS7003;16428;47.836;35.106;2023-04-15T03:52:21;3.50;3.50;3.00
29460;PMS7003;16428;47.836;35.106;2023-04-15T03:54:48;3.00;3.00;3.00
29460;PMS7003;16428;47.836;35.106;2023-04-15T03:57:18;1.50;1.50;1.00
29460;PMS7003;16428;47.836;35.106;2023-04-15T03:59:46;3.50;3.25;2.50
29460;PMS7003;16428;47.836;35.106;2023-04-15T04:02:14;2.75;2.75;2.00
29460;PMS7003;16428;47.836;35.106;2023-04-15T04:04:41;2.50;2.50;2.00
29460;PMS7003;16428;47.836;35.106;2023-04-15T04:07:15;2.75;2.75;2.75
29460;PMS7003;16428;47.836;35.106;2023-04-15T04:09:43;3.00;3.00;3.00
29460;PMS7003;16428;47.836;35.106;2023-04-15T04:12:13;2.25;2.25;2.00
29460;PMS7003;16428;47.836;35.106;2023-04-15T04:14:42;9.50;5.25;4.50
29460;PMS7003;16428;47.836;35.106;2023-04-15T04:17:10;3.75;3.75;3.50
29460;PMS7003;16428;47.836;35.106;2023-04-15T04:19:37;5.00;5.00;4.50
29460;PMS7003;16428;47.836;35.106;2023-04-15T04:22:13;9.00;5.00;4.25
29460;PMS7003;16428;47.836;35.106;2023-04-15T04:24:41;2.50;2.50;2.00
29460;PMS7003;16428;47.836;35.106;2023-04-15T04:27:08;4.75;4.75;3.75
29460;PMS7003;16428;47.836;35.106;2023-04-15T04:29:38;3.75;3.75;3.25
29460;PMS7003;16428;47.836;35.106;2023-04-15T04:32:06;5.75;4.50;4.00
29460;PMS7003;16428;47.836;35.106;2023-04-15T04:34:34;12.00;12.00;10.50
29460;PMS7003;16428;47.836;35.106;2023-04-15T04:37:01;18.75;17.00;13.00
29460;PMS7003;16428;47.836;35.106;2023-04-15T04:39:29;4.75;4.75;4.75
29460;PMS7003;16428;47.836;35.106;2023-04-15T04:41:57;5.00;5.00;4.00
29460;PMS7003;16428;47.836;35.106;2023-04-15T04:44:24;10.25;9.00;8.00
29460;PMS7003;16428;47.836;35.106;2023-04-15T04:46:52;6.50;6.50;5.00
29460;PMS7003;16428;47.836;35.106;2023-04-15T04:49:20;7.00;4.00;3.75
29460;PMS7003;16428;47.836;35.106;2023-04-15T04:51:47;5.00;5.00;3.50
29460;PMS7003;16428;47.836;35.106;2023-04-15T04:54:15;7.25;7.25;6.00
29460;PMS7003;16428;47.836;35.106;2023-04-15T04:56:43;9.00;5.50;4.50
29460;PMS7003;16428;47.836;35.106;2023-04-15T04:59:11;18.50;12.25;11.50
29460;PMS7003;16428;47.836;35.106;2023-04-15T05:01:40;16.25;13.25;9.25
29460;PMS7003;16428;47.836;35.106;2023-04-15T05:04:08;8.25;5.25;4.25
29460;PMS7003;16428;47.836;35.106;2023-04-15T05:06:37;9.25;7.25;5.75
29460;PMS7003;16428;47.836;35.106;2023-04-15T05:09:05;9.00;8.50;5.75
29460;PMS7003;16428;47.836;35.106;2023-04-15T05:11:33;9.75;6.75;5.75
29460;PMS7003;16428;47.836;35.106;2023-04-15T05:14:00;4.50;4.50;4.25
29460;PMS7003;16428;47.836;35.106;2023-04-15T05:16:34;5.50;5.50;5.00
29460;PMS7003;16428;47.836;35.106;2023-04-15T05:19:01;6.25;6.25;5.00
29460;PMS7003;16428;47.836;35.106;2023-04-15T05:21:29;7.25;5.00;4.50
29460;PMS7003;16428;47.836;35.106;2023-04-15T05:23:57;7.75;7.00;5.00
29460;PMS7003;16428;47.836;35.106;2023-04-15T05:26:26;6.00;6.00;5.00
29460;PMS7003;16428;47.836;35.106;2023-04-15T05:28:54;9.25;5.00;3.00
29460;PMS7003;16428;47.836;35.106;2023-04-15T05:31:22;6.00;6.00;5.00
29460;PMS7003;16428;47.836;35.106;2023-04-15T05:33:51;4.75;4.75;4.25
29460;PMS7003;16428;47.836;35.106;2023-04-15T05:36:19;9.00;9.00;7.00
29460;PMS7003;16428;47.836;35.106;2023-04-15T05:38:46;5.25;5.25;4.50
29460;PMS7003;16428;47.836;35.106;2023-04-15T05:41:14;8.50;4.25;4.00
29460;PMS7003;16428;47.836;35.106;2023-04-15T05:43:45;7.50;6.25;5.50
29460;PMS7003;16428;47.836;35.106;2023-04-15T05:46:14;6.00;6.00;5.50
29460;PMS7003;16428;47.836;35.106;2023-04-15T05:48:41;5.00;5.00;4.25
29460;PMS7003;16428;47.836;35.106;2023-04-15T05:51:09;5.75;5.50;5.00
29460;PMS7003;16428;47.836;35.106;2023-04-15T05:53:37;7.50;7.50;7.50
29460;PMS7003;16428;47.836;35.106;2023-04-15T05:56:04;8.75;8.75;5.50
29460;PMS7003;16428;47.836;35.106;2023-04-15T05:58:32;6.50;6.50;5.50
29460;PMS7003;16428;47.836;35.106;2023-04-15T06:01:00;5.00;5.00;4.50
29460;PMS7003;16428;47.836;35.106;2023-04-15T06:03:31;10.00;7.25;6.00
29460;PMS7003;16428;47.836;35.106;2023-04-15T06:05:59;3.00;3.00;3.00
29460;PMS7003;16428;47.836;35.106;2023-04-15T06:08:28;3.75;3.75;3.50
29460;PMS7003;16428;47.836;35.106;2023-04-15T06:10:57;5.25;5.25;4.25
29460;PMS7003;16428;47.836;35.106;2023-04-15T06:13:27;6.00;6.00;4.50
29460;PMS7003;16428;47.836;35.106;2023-04-15T06:15:55;7.00;7.00;6.25
29460;PMS7003;16428;47.836;35.106;2023-04-15T06:18:22;7.00;7.00;6.00
29460;PMS7003;16428;47.836;35.106;2023-04-15T06:20:50;6.75;6.75;5.00
29460;PMS7003;16428;47.836;35.106;2023-04-15T06:23:18;6.00;6.00;6.00
29460;PMS7003;16428;47.836;35.106;2023-04-15T06:25:45;6.00;4.50;3.75
29460;PMS7003;16428;47.836;35.106;2023-04-15T06:28:15;8.25;5.00;5.00
29460;PMS7003;16428;47.836;35.106;2023-04-15T06:30:42;8.50;6.00;5.00
29460;PMS7003;16428;47.836;35.106;2023-04-15T06:33:11;7.50;7.00;6.50
29460;PMS7003;16428;47.836;35.106;2023-04-15T06:35:39;5.75;4.25;4.00
29460;PMS7003;16428;47.836;35.106;2023-04-15T06:38:07;8.75;6.00;5.00
29460;PMS7003;16428;47.836;35.106;2023-04-15T06:40:35;13.00;7.25;6.25
29460;PMS7003;16428;47.836;35.106;2023-04-15T06:43:02;6.75;6.00;5.00
29460;PMS7003;16428;47.836;35.106;2023-04-15T06:45:36;9.25;8.50;7.50
29460;PMS7003;16428;47.836;35.106;2023-04-15T06:48:03;6.25;6.25;6.00
29460;PMS7003;16428;47.836;35.106;2023-04-15T06:50:31;11.25;11.25;8.25
29460;PMS7003;16428;47.836;35.106;2023-04-15T06:53:01;7.75;2.50;2.00
29460;PMS7003;16428;47.836;35.106;2023-04-15T06:55:29;10.75;9.25;7.00
29460;PMS7003;16428;47.836;35.106;2023-04-15T06:57:57;12.25;9.00;6.75
29460;PMS7003;16428;47.836;35.106;2023-04-15T07:00:30;8.50;8.50;5.50
29460;PMS7003;16428;47.836;35.106;2023-04-15T07:02:59;4.50;4.50;3.50
29460;PMS7003;16428;47.836;35.106;2023-04-15T07:05:30;5.75;5.75;4.00
29460;PMS7003;16428;47.836;35.106;2023-04-15T07:08:02;8.25;6.50;4.75
29460;PMS7003;16428;47.836;35.106;2023-04-15T07:10:32;7.50;6.25;5.50
29460;PMS7003;16428;47.836;35.106;2023-04-15T07:13:00;10.50;6.00;5.25
29460;PMS7003;16428;47.836;35.106;2023-04-15T07:15:28;8.25;6.75;5.50
29460;PMS7003;16428;47.836;35.106;2023-04-15T07:17:56;6.25;6.25;5.00
29460;PMS7003;16428;47.836;35.106;2023-04-15T07:20:24;9.50;7.00;5.75
29460;PMS7003;16428;47.836;35.106;2023-04-15T07:22:52;8.25;6.25;5.00
29460;PMS7003;16428;47.836;35.106;2023-04-15T07:25:24;10.00;6.75;5.50
29460;PMS7003;16428;47.836;35.106;2023-04-15T07:27:51;10.75;7.25;5.50
29460;PMS7003;16428;47.836;35.106;2023-04-15T07:30:20;8.00;6.25;5.50
29460;PMS7003;16428;47.836;35.106;2023-04-15T07:32:48;7.00;5.50;4.50
29460;PMS7003;16428;47.836;35.106;2023-04-15T07:35:15;12.00;8.00;6.75
29460;PMS7003;16428;47.836;35.106;2023-04-15T07:37:43;5.25;5.25;4.25
29460;PMS7003;16428;47.836;35.106;2023-04-15T07:40:10;6.50;6.50;5.00
29460;PMS7003;16428;47.836;35.106;2023-04-15T07:42:41;5.00;5.00;4.25
29460;PMS7003;16428;47.836;35.106;2023-04-15T07:45:11;8.00;7.75;5.75
29460;PMS7003;16428;47.836;35.106;2023-04-15T07:47:38;11.25;7.75;6.75
29460;PMS7003;16428;47.836;35.106;2023-04-15T07:50:08;11.25;8.00;6.00
29460;PMS7003;16428;47.836;35.106;2023-04-15T07:52:37;13.75;12.75;8.25
29460;PMS7003;16428;47.836;35.106;2023-04-15T07:55:08;10.00;10.00;7.75
29460;PMS7003;16428;47.836;35.106;2023-04-15T07:57:39;11.00;10.75;7.75
29460;PMS7003;16428;47.836;35.106;2023-04-15T08:00:08;7.50;7.00;6.00
29460;PMS7003;16428;47.836;35.106;2023-04-15T08:02:36;11.25;8.00;7.00
29460;PMS7003;16428;47.836;35.106;2023-04-15T08:05:06;7.75;7.00;7.00
29460;PMS7003;16428;47.836;35.106;2023-04-15T08:07:37;14.00;9.00;7.25
29460;PMS7003;16428;47.836;35.106;2023-04-15T08:10:05;14.25;9.50;7.50
29460;PMS7003;16428;47.836;35.106;2023-04-15T08:12:35;9.25;9.25;7.00
29460;PMS7003;16428;47.836;35.106;2023-04-15T08:15:06;7.50;7.50;6.00
29460;PMS7003;16428;47.836;35.106;2023-04-15T08:17:35;10.50;7.50;7.00
29460;PMS7003;16428;47.836;35.106;2023-04-15T08:20:02;17.25;13.00;10.50
29460;PMS7003;16428;47.836;35.106;2023-04-15T08:22:32;13.00;11.75;8.00
29460;PMS7003;16428;47.836;35.106;2023-04-15T08:25:05;12.00;12.00;11.00
29460;PMS7003;16428;47.836;35.106;2023-04-15T08:27:37;11.00;11.00;9.00
29460;PMS7003;16428;47.836;35.106;2023-04-15T08:30:06;9.00;9.00;7.00
29460;PMS7003;16428;47.836;35.106;2023-04-15T08:32:35;12.75;12.50;8.50
29460;PMS7003;16428;47.836;35.106;2023-04-15T08:35:05;10.75;10.75;8.00
29460;PMS7003;16428;47.836;35.106;2023-04-15T08:37:33;12.75;12.75;9.25
29460;PMS7003;16428;47.836;35.106;2023-04-15T08:40:02;12.50;12.25;8.00
29460;PMS7003;16428;47.836;35.106;2023-04-15T08:42:40;13.50;10.75;8.25
29460;PMS7003;16428;47.836;35.106;2023-04-15T08:45:17;10.00;9.50;6.50
29460;PMS7003;16428;47.836;35.106;2023-04-15T08:47:47;12.25;12.00;11.00
29460;PMS7003;16428;47.836;35.106;2023-04-15T08:50:22;11.50;11.50;9.50
29460;PMS7003;16428;47.836;35.106;2023-04-15T08:52:54;13.00;10.50;7.75
29460;PMS7003;16428;47.836;35.106;2023-04-15T08:55:28;6.50;6.50;6.00
29460;PMS7003;16428;47.836;35.106;2023-04-15T08:58:01;12.75;12.75;9.25
29460;PMS7003;16428;47.836;35.106;2023-04-15T09:00:33;8.25;8.25;7.00
29460;PMS7003;16428;47.836;35.106;2023-04-15T09:03:00;13.75;11.25;9.00
29460;PMS7003;16428;47.836;35.106;2023-04-15T09:05:30;12.00;12.00;9.00
29460;PMS7003;16428;47.836;35.106;2023-04-15T09:07:59;8.75;8.75;6.75
29460;PMS7003;16428;47.836;35.106;2023-04-15T09:10:28;8.50;8.50;6.50
29460;PMS7003;16428;47.836;35.106;2023-04-15T09:12:58;12.50;11.75;9.00
29460;PMS7003;16428;47.836;35.106;2023-04-15T09:15:25;11.25;11.25;8.25
29460;PMS7003;16428;47.836;35.106;2023-04-15T09:17:56;13.00;13.00;9.00
29460;PMS7003;16428;47.836;35.106;2023-04-15T09:20:23;14.00;12.25;8.50
29460;PMS7003;16428;47.836;35.106;2023-04-15T09:22:51;14.00;12.75;11.50
29460;PMS7003;16428;47.836;35.106;2023-04-15T09:27:57;12.25;12.25;9.50
29460;PMS7003;16428;47.836;35.106;2023-04-15T09:30:26;7.25;7.25;5.75
29460;PMS7003;16428;47.836;35.106;2023-04-15T09:32:55;14.75;13.75;10.00
29460;PMS7003;16428;47.836;35.106;2023-04-15T09:35:35;15.25;11.75;9.25
29460;PMS7003;16428;47.836;35.106;2023-04-15T09:38:04;12.00;12.00;9.75
29460;PMS7003;16428;47.836;35.106;2023-04-15T09:40:36;14.00;12.25;9.25
29460;PMS7003;16428;47.836;35.106;2023-04-15T09:43:06;12.00;11.00;9.00
29460;PMS7003;16428;47.836;35.106;2023-04-15T09:45:35;14.50;13.00;11.00
29460;PMS7003;16428;47.836;35.106;2023-04-15T09:48:16;14.50;11.75;8.25
29460;PMS7003;16428;47.836;35.106;2023-04-15T09:50:48;16.75;14.75;11.00
29460;PMS7003;16428;47.836;35.106;2023-04-15T09:53:21;14.25;12.00;9.00
29460;PMS7003;16428;47.836;35.106;2023-04-15T09:55:51;14.50;14.50;10.00
29460;PMS7003;16428;47.836;35.106;2023-04-15T09:58:22;12.00;12.00;11.00
29460;PMS7003;16428;47.836;35.106;2023-04-15T10:00:50;16.00;10.33;8.33
29460;PMS7003;16428;47.836;35.106;2023-04-15T10:03:19;11.00;11.00;10.00
29460;PMS7003;16428;47.836;35.106;2023-04-15T10:05:50;10.33;10.33;9.00
29460;PMS7003;16428;47.836;35.106;2023-04-15T10:08:20;16.67;14.33;12.00
29460;PMS7003;16428;47.836;35.106;2023-04-15T10:10:51;14.00;12.00;9.67
29460;PMS7003;16428;47.836;35.106;2023-04-15T10:13:22;16.00;13.00;9.00
29460;PMS7003;16428;47.836;35.106;2023-04-15T10:15:55;14.33;12.00;10.00
29460;PMS7003;16428;47.836;35.106;2023-04-15T10:18:27;12.33;12.33;10.33
29460;PMS7003;16428;47.836;35.106;2023-04-15T10:20:58;11.75;11.75;9.75
29460;PMS7003;16428;47.836;35.106;2023-04-15T10:23:27;14.00;14.00;11.33
29460;PMS7003;16428;47.836;35.106;2023-04-15T10:25:55;15.33;14.33;10.33
29460;PMS7003;16428;47.836;35.106;2023-04-15T10:28:24;18.00;16.33;12.67
29460;PMS7003;16428;47.836;35.106;2023-04-15T10:30:52;16.33;12.67;11.00
29460;PMS7003;16428;47.836;35.106;2023-04-15T10:33:22;16.00;15.33;12.67
29460;PMS7003;16428;47.836;35.106;2023-04-15T10:35:52;18.75;18.75;15.25
29460;PMS7003;16428;47.836;35.106;2023-04-15T10:38:35;12.67;12.00;10.00
29460;PMS7003;16428;47.836;35.106;2023-04-15T10:43:48;16.67;14.67;11.00
29460;PMS7003;16428;47.836;35.106;2023-04-15T10:46:35;16.75;15.25;12.25
29460;PMS7003;16428;47.836;35.106;2023-04-15T10:49:08;12.67;12.67;10.67
29460;PMS7003;16428;47.836;35.106;2023-04-15T10:51:43;12.00;11.67;10.33
29460;PMS7003;16428;47.836;35.106;2023-04-15T10:54:14;17.67;16.67;12.00
29460;PMS7003;16428;47.836;35.106;2023-04-15T10:56:44;11.33;11.33;11.33
29460;PMS7003;16428;47.836;35.106;2023-04-15T10:59:12;16.67;14.00;13.00
29460;PMS7003;16428;47.836;35.106;2023-04-15T11:01:52;19.00;17.67;12.67
29460;PMS7003;16428;47.836;35.106;2023-04-15T11:12:45;13.00;13.00;10.33
29460;PMS7003;16428;47.836;35.106;2023-04-15T11:20:49;11.33;10.67;9.67
29460;PMS7003;16428;47.836;35.106;2023-04-15T11:23:26;8.67;6.33;6.33
29460;PMS7003;16428;47.836;35.106;2023-04-15T11:25:58;7.33;6.67;6.00
29460;PMS7003;16428;47.836;35.106;2023-04-15T11:28:29;8.33;8.33;6.67
29460;PMS7003;16428;47.836;35.106;2023-04-15T11:30:57;11.67;11.67;10.33
29460;PMS7003;16428;47.836;35.106;2023-04-15T11:33:32;14.33;11.33;10.00
29460;PMS7003;16428;47.836;35.106;2023-04-15T11:35:59;11.33;8.67;7.00
29460;PMS7003;16428;47.836;35.106;2023-04-15T11:38:27;1.67;1.33;1.00
29460;PMS7003;16428;47.836;35.106;2023-04-15T11:40:55;3.00;3.00;3.00
29460;PMS7003;16428;47.836;35.106;2023-04-15T11:43:23;4.67;4.00;3.33
29460;PMS7003;16428;47.836;35.106;2023-04-15T11:48:26;6.33;6.33;5.33
29460;PMS7003;16428;47.836;35.106;2023-04-15T11:51:02;9.00;9.00;8.33
29460;PMS7003;16428;47.836;35.106;2023-04-15T11:53:41;11.00;11.00;10.00
29460;PMS7003;16428;47.836;35.106;2023-04-15T11:56:18;10.67;10.67;9.00
29460;PMS7003;16428;47.836;35.106;2023-04-15T11:58:55;4.00;3.00;1.00
29460;PMS7003;16428;47.836;35.106;2023-04-15T12:01:34;7.67;7.67;6.00
29460;PMS7003;16428;47.836;35.106;2023-04-15T12:04:09;14.33;12.67;9.33
29460;PMS7003;16428;47.836;35.106;2023-04-15T12:06:41;10.33;10.33;9.00
29460;PMS7003;16428;47.836;35.106;2023-04-15T12:09:10;13.00;13.00;9.33
29460;PMS7003;16428;47.836;35.106;2023-04-15T12:11:51;11.00;11.00;9.00
29460;PMS7003;16428;47.836;35.106;2023-04-15T12:14:27;12.33;12.33;11.00
29460;PMS7003;16428;47.836;35.106;2023-04-15T12:17:01;13.00;13.00;11.00
29460;PMS7003;16428;47.836;35.106;2023-04-15T12:19:34;9.33;9.33;7.00
29460;PMS7003;16428;47.836;35.106;2023-04-15T12:22:12;7.33;7.00;6.00
29460;PMS7003;16428;47.836;35.106;2023-04-15T12:24:42;8.33;7.00;6.00
29460;PMS7003;16428;47.836;35.106;2023-04-15T12:27:13;7.00;5.00;4.33
29460;PMS7003;16428;47.836;35.106;2023-04-15T12:29:42;7.00;7.00;6.67
29460;PMS7003;16428;47.836;35.106;2023-04-15T12:34:40;9.33;9.33;8.00
29460;PMS7003;16428;47.836;35.106;2023-04-15T12:37:10;7.33;6.00;5.00
29460;PMS7003;16428;47.836;35.106;2023-04-15T12:39:40;8.75;8.75;7.00
29460;PMS7003;16428;47.836;35.106;2023-04-15T12:42:09;7.75;7.00;6.00
29460;PMS7003;16428;47.836;35.106;2023-04-15T12:44:38;8.25;7.50;6.00
29460;PMS7003;16428;47.836;35.106;2023-04-15T12:47:07;8.33;6.33;6.00
29460;PMS7003;16428;47.836;35.106;2023-04-15T12:49:35;8.25;8.25;6.75
29460;PMS7003;16428;47.836;35.106;2023-04-15T12:52:03;9.00;8.00;5.75
29460;PMS7003;16428;47.836;35.106;2023-04-15T12:54:31;6.00;5.25;4.75
29460;PMS7003;16428;47.836;35.106;2023-04-15T12:56:59;10.00;7.00;6.00
29460;PMS7003;16428;47.836;35.106;2023-04-15T12:59:27;7.00;6.50;5.50
29460;PMS7003;16428;47.836;35.106;2023-04-15T13:01:55;7.67;7.00;5.00
29460;PMS7003;16428;47.836;35.106;2023-04-15T13:04:23;7.00;7.00;6.00
29460;PMS7003;16428;47.836;35.106;2023-04-15T13:06:51;6.00;6.00;5.25
29460;PMS7003;16428;47.836;35.106;2023-04-15T13:09:18;7.50;7.50;6.75
29460;PMS7003;16428;47.836;35.106;2023-04-15T13:11:45;9.67;8.00;7.33
29460;PMS7003;16428;47.836;35.106;2023-04-15T13:14:13;9.25;7.00;6.50
29460;PMS7003;16428;47.836;35.106;2023-04-15T13:16:40;5.50;5.50;5.00
29460;PMS7003;16428;47.836;35.106;2023-04-15T13:19:07;7.50;7.50;6.75
29460;PMS7003;16428;47.836;35.106;2023-04-15T13:21:36;7.00;7.00;6.50
29460;PMS7003;16428;47.836;35.106;2023-04-15T13:24:03;3.00;2.00;1.00
29460;PMS7003;16428;47.836;35.106;2023-04-15T13:26:33;7.25;7.25;6.75
29460;PMS7003;16428;47.836;35.106;2023-04-15T13:32:15;7.50;7.50;6.50
29460;PMS7003;16428;47.836;35.106;2023-04-15T13:34:42;4.75;4.75;4.25
29460;PMS7003;16428;47.836;35.106;2023-04-15T13:37:10;7.00;5.00;5.00
29460;PMS7003;16428;47.836;35.106;2023-04-15T13:39:37;8.50;7.00;6.25
29460;PMS7003;16428;47.836;35.106;2023-04-15T13:42:05;6.25;6.25;6.25
29460;PMS7003;16428;47.836;35.106;2023-04-15T13:44:33;6.75;6.75;6.25
29460;PMS7003;16428;47.836;35.106;2023-04-15T13:47:01;6.50;6.50;5.50
29460;PMS7003;16428;47.836;35.106;2023-04-15T13:49:28;8.00;8.00;7.25
29460;PMS7003;16428;47.836;35.106;2023-04-15T13:51:56;6.75;6.75;5.75
29460;PMS7003;16428;47.836;35.106;2023-04-15T13:54:23;7.50;7.50;7.00
29460;PMS7003;16428;47.836;35.106;2023-04-15T13:57:04;8.00;8.00;7.25
29460;PMS7003;16428;47.836;35.106;2023-04-15T13:59:32;4.75;4.25;4.25
29460;PMS7003;16428;47.836;35.106;2023-04-15T14:02:03;6.25;6.25;6.00
29460;PMS7003;16428;47.836;35.106;2023-04-15T14:04:31;9.75;9.75;9.00
29460;PMS7003;16428;47.836;35.106;2023-04-15T14:06:59;9.50;9.00;8.00
29460;PMS7003;16428;47.836;35.106;2023-04-15T14:09:29;8.00;7.25;6.25
29460;PMS7003;16428;47.836;35.106;2023-04-15T14:11:57;7.25;7.25;6.75
29460;PMS7003;16428;47.836;35.106;2023-04-15T14:14:26;9.50;7.25;7.00
29460;PMS7003;16428;47.836;35.106;2023-04-15T14:16:54;8.33;8.33;7.33
29460;PMS7003;16428;47.836;35.106;2023-04-15T14:19:22;6.33;6.33;5.33
29460;PMS7003;16428;47.836;35.106;2023-04-15T14:21:50;8.33;6.33;5.33
29460;PMS7003;16428;47.836;35.106;2023-04-15T14:24:17;8.50;8.00;6.50
29460;PMS7003;16428;47.836;35.106;2023-04-15T14:26:45;8.33;7.33;7.00
29460;PMS7003;16428;47.836;35.106;2023-04-15T14:29:12;8.33;8.33;7.00
29460;PMS7003;16428;47.836;35.106;2023-04-15T14:31:40;7.00;7.00;6.00
29460;PMS7003;16428;47.836;35.106;2023-04-15T14:34:28;6.00;6.00;5.00
29460;PMS7003;16428;47.836;35.106;2023-04-15T14:36:55;11.00;8.67;7.00
29460;PMS7003;16428;47.836;35.106;2023-04-15T14:39:22;9.33;8.67;7.33
29460;PMS7003;16428;47.836;35.106;2023-04-15T14:41:50;10.00;10.00;7.67